Time;durP1;ratioP1;P1;durP2;ratioP2;P2;SDS_P1;SDS_P2;PMS_P1;PMS_P2;Temp;Humidity;BMP_temperature;BMP_pressure;BME280_temperature;BME280_humidity;BME280_pressure;Samples;Min_cycle;Max_cycle;Signal;HPM_P1;HPM_P2
2023/10/18 00:00:34;;;;;;;4.72;2.47;;;7.10;99.90;;;;;;4972512;28;20228;-58
2023/10/18 00:03:02;;;;;;;5.30;2.55;;;7.10;99.90;;;;;;4972407;28;20363;-56
2023/10/18 00:05:31;;;;;;;2.75;2.30;;;7.10;99.90;;;;;;4972604;28;20207;-57
2023/10/18 00:07:59;;;;;;;7.90;2.78;;;7.10;99.90;;;;;;4976610;28;20612;-58
2023/10/18 00:10:30;;;;;;;3.58;2.65;;;7.10;99.90;;;;;;4986852;28;20196;-58
2023/10/18 00:12:59;;;;;;;4.07;2.58;;;7.10;99.90;;;;;;4989524;28;20262;-57
2023/10/18 00:15:27;;;;;;;7.75;2.58;;;7.10;99.90;;;;;;4989902;28;20204;-57
2023/10/18 00:17:55;;;;;;;4.22;2.65;;;7.10;99.90;;;;;;4990324;28;20319;-56
2023/10/18 00:20:25;;;;;;;3.60;2.42;;;7.00;99.90;;;;;;4991836;28;20224;-56
2023/10/18 00:22:54;;;;;;;3.60;2.35;;;7.00;99.90;;;;;;4992188;28;20214;-57
2023/10/18 00:25:22;;;;;;;3.92;3.00;;;7.00;99.90;;;;;;4983743;28;20674;-56
2023/10/18 00:27:52;;;;;;;2.97;2.35;;;7.00;99.90;;;;;;4993037;28;20235;-57
2023/10/18 00:30:20;;;;;;;5.50;2.50;;;7.00;99.90;;;;;;4994935;28;20266;-57
2023/10/18 00:32:48;;;;;;;4.20;2.72;;;7.00;99.90;;;;;;4994815;28;20221;-57
2023/10/18 00:35:20;;;;;;;3.88;3.08;;;6.90;99.90;;;;;;4986379;28;20212;-57
2023/10/18 00:37:51;;;;;;;5.05;2.50;;;7.00;99.90;;;;;;4979485;28;20638;-58
2023/10/18 00:40:32;;;;;;;8.73;3.30;;;6.90;99.90;;;;;;4984172;28;20266;-57
2023/10/18 00:43:07;;;;;;;5.53;2.60;;;6.90;99.90;;;;;;4983543;28;20232;-57
2023/10/18 00:45:39;;;;;;;3.05;2.50;;;6.90;99.90;;;;;;4976188;28;20204;-58
2023/10/18 00:48:08;;;;;;;4.07;2.65;;;6.90;99.90;;;;;;4975606;28;20235;-56
2023/10/18 00:50:38;;;;;;;3.45;2.60;;;6.90;99.90;;;;;;4975684;28;20204;-57
2023/10/18 00:53:06;;;;;;;6.97;2.70;;;6.90;99.90;;;;;;4981733;28;20221;-57
2023/10/18 00:55:34;;;;;;;4.97;2.80;;;6.80;99.90;;;;;;4991252;28;20287;-56
2023/10/18 00:58:05;;;;;;;5.20;2.90;;;6.80;99.90;;;;;;4993034;28;20228;-57
2023/10/18 01:00:37;;;;;;;3.08;2.75;;;6.80;99.90;;;;;;4993528;28;20945;-57
2023/10/18 01:03:09;;;;;;;6.10;3.20;;;6.80;99.90;;;;;;4993326;28;20204;-57
2023/10/18 01:05:37;;;;;;;4.13;3.13;;;6.90;99.90;;;;;;4992994;28;20654;-57
2023/10/18 01:08:10;;;;;;;2.58;2.38;;;6.90;99.90;;;;;;4993689;28;20314;-57
2023/10/18 01:10:41;;;;;;;6.85;2.97;;;6.80;99.90;;;;;;4991531;28;20303;-56
2023/10/18 01:13:10;;;;;;;3.30;2.80;;;6.80;99.90;;;;;;4994437;28;20212;-57
2023/10/18 01:15:43;;;;;;;4.47;2.55;;;6.80;99.90;;;;;;4993871;28;20208;-57
2023/10/18 01:18:11;;;;;;;3.85;2.75;;;6.70;99.90;;;;;;4994023;28;20605;-57
2023/10/18 01:20:40;;;;;;;6.82;2.85;;;6.70;99.90;;;;;;5000414;28;20277;-57
2023/10/18 01:23:09;;;;;;;3.53;2.55;;;6.70;99.90;;;;;;4996204;28;20294;-57
2023/10/18 01:25:38;;;;;;;4.90;2.58;;;6.70;99.90;;;;;;4993691;28;20302;-58
2023/10/18 01:28:06;;;;;;;5.10;2.65;;;6.70;99.90;;;;;;4994076;28;20656;-57
2023/10/18 01:30:34;;;;;;;5.53;2.58;;;6.70;99.90;;;;;;4991142;28;20282;-57
2023/10/18 01:33:04;;;;;;;3.40;2.67;;;6.70;99.90;;;;;;4992679;28;20213;-57
2023/10/18 01:35:32;;;;;;;4.30;2.83;;;6.70;99.90;;;;;;4993347;28;20203;-57
2023/10/18 01:38:04;;;;;;;3.25;2.75;;;6.70;99.90;;;;;;4992948;28;20290;-56
2023/10/18 01:40:41;;;;;;;3.55;2.60;;;6.70;99.90;;;;;;4997380;28;20583;-57
2023/10/18 01:43:11;;;;;;;4.47;3.10;;;6.70;99.90;;;;;;4995750;28;20212;-58
2023/10/18 01:45:39;;;;;;;4.93;2.83;;;6.70;99.90;;;;;;5001947;28;20673;-57
2023/10/18 01:48:09;;;;;;;4.53;2.75;;;6.70;99.90;;;;;;4996023;28;20290;-57
2023/10/18 01:50:39;;;;;;;5.85;2.78;;;6.70;99.90;;;;;;5013987;28;20203;-57
2023/10/18 01:53:15;;;;;;;4.35;2.80;;;6.70;99.90;;;;;;4996807;28;20208;-56
2023/10/18 01:55:46;;;;;;;5.63;2.90;;;6.70;99.90;;;;;;5000245;28;20231;-57
2023/10/18 01:58:15;;;;;;;5.25;2.83;;;6.60;99.90;;;;;;4990480;28;20646;-57
2023/10/18 02:00:44;;;;;;;3.47;2.92;;;6.60;99.90;;;;;;4991150;28;20658;-56
2023/10/18 02:03:12;;;;;;;4.38;2.67;;;6.60;99.90;;;;;;4993171;28;20200;-58
2023/10/18 02:05:43;;;;;;;5.53;2.75;;;6.60;99.90;;;;;;4993141;28;20277;-56
2023/10/18 02:08:11;;;;;;;4.78;2.90;;;6.50;99.90;;;;;;4991413;28;20230;-57
2023/10/18 02:10:42;;;;;;;3.08;2.88;;;6.50;99.90;;;;;;4994022;28;20205;-56
2023/10/18 02:13:11;;;;;;;4.47;2.83;;;6.50;99.90;;;;;;5002153;28;20236;-56
2023/10/18 02:15:40;;;;;;;4.90;2.53;;;6.50;99.90;;;;;;4992202;28;20200;-57
2023/10/18 02:18:08;;;;;;;7.47;2.85;;;6.50;99.90;;;;;;4993589;28;20227;-57
2023/10/18 02:20:37;;;;;;;5.18;2.67;;;6.50;99.90;;;;;;5007830;28;20258;-57
2023/10/18 02:23:11;;;;;;;2.78;2.47;;;6.50;99.90;;;;;;4996681;28;20318;-57
2023/10/18 02:25:43;;;;;;;3.63;2.55;;;6.50;99.90;;;;;;5003013;28;20207;-57
2023/10/18 02:28:22;;;;;;;3.03;2.72;;;6.50;99.90;;;;;;5001620;28;20318;-58
2023/10/18 02:30:57;;;;;;;4.03;2.67;;;6.50;99.90;;;;;;4982520;28;20219;-57
2023/10/18 02:33:33;;;;;;;4.57;2.60;;;6.50;99.90;;;;;;4991428;28;20254;-58
2023/10/18 02:36:05;;;;;;;2.83;2.63;;;6.50;99.90;;;;;;4993088;28;20208;-58
2023/10/18 02:38:33;;;;;;;3.08;2.78;;;6.50;99.90;;;;;;4973908;28;20308;-57
2023/10/18 02:41:14;;;;;;;5.65;3.20;;;6.40;99.90;;;;;;4980191;28;20757;-58
2023/10/18 02:43:45;;;;;;;3.45;2.80;;;6.50;99.90;;;;;;4973807;28;20208;-57
2023/10/18 02:46:16;;;;;;;3.22;2.85;;;6.40;99.90;;;;;;4973556;28;20640;-57
2023/10/18 02:48:44;;;;;;;9.77;3.28;;;6.40;99.90;;;;;;4977117;28;20212;-58
2023/10/18 02:51:12;;;;;;;4.25;3.00;;;6.40;99.90;;;;;;4984286;28;20219;-57
2023/10/18 02:53:41;;;;;;;3.53;3.10;;;6.40;99.90;;;;;;4987616;28;20201;-58
2023/10/18 02:56:10;;;;;;;6.50;3.00;;;6.40;99.90;;;;;;4973265;28;20762;-58
2023/10/18 02:58:38;;;;;;;3.03;2.83;;;6.30;99.90;;;;;;4980939;28;20209;-57
2023/10/18 03:01:08;;;;;;;2.67;2.50;;;6.30;99.90;;;;;;4991976;28;20208;-57
2023/10/18 03:03:39;;;;;;;2.97;2.65;;;6.30;99.90;;;;;;4991878;28;20204;-56
2023/10/18 03:06:12;;;;;;;4.75;3.30;;;6.30;99.90;;;;;;4990882;28;20323;-56
2023/10/18 03:08:42;;;;;;;3.80;2.70;;;6.30;99.90;;;;;;4986254;28;20207;-56
2023/10/18 03:11:11;;;;;;;5.95;2.78;;;6.30;99.90;;;;;;4999409;28;20247;-56
2023/10/18 03:13:39;;;;;;;6.68;3.13;;;6.20;99.90;;;;;;4986503;28;20258;-57
2023/10/18 03:16:15;;;;;;;4.72;3.00;;;6.30;99.90;;;;;;5002798;28;20266;-57
2023/10/18 03:18:45;;;;;;;3.30;2.90;;;6.20;99.90;;;;;;5001685;28;20203;-58
2023/10/18 03:21:20;;;;;;;5.97;3.40;;;6.20;99.90;;;;;;4991901;28;20208;-56
2023/10/18 03:23:50;;;;;;;6.10;3.17;;;6.20;99.90;;;;;;4999977;28;20203;-56
2023/10/18 03:26:22;;;;;;;3.13;2.67;;;6.10;99.90;;;;;;4993256;28;20232;-58
2023/10/18 03:28:51;;;;;;;4.47;3.08;;;6.10;99.90;;;;;;4994768;28;20704;-57
2023/10/18 03:31:24;;;;;;;6.40;3.00;;;6.20;99.90;;;;;;4993713;28;20208;-56
2023/10/18 03:33:55;;;;;;;5.50;3.38;;;6.10;99.90;;;;;;4990432;28;20724;-57
2023/10/18 03:36:25;;;;;;;3.25;2.92;;;6.00;99.90;;;;;;4986749;28;20232;-56
2023/10/18 03:39:00;;;;;;;4.65;2.90;;;6.00;99.90;;;;;;4976966;28;20208;-57
2023/10/18 03:41:33;;;;;;;4.65;3.45;;;6.00;99.90;;;;;;4976547;28;20204;-57
2023/10/18 03:44:07;;;;;;;4.43;2.97;;;5.90;99.90;;;;;;4972589;28;20264;-57
2023/10/18 03:49:25;;;;;;;5.03;3.50;;;5.90;99.90;;;;;;4977473;28;20236;-58
2023/10/18 03:51:56;;;;;;;7.50;3.08;;;6.00;99.90;;;;;;4973049;28;20300;-57
2023/10/18 03:54:27;;;;;;;6.03;3.35;;;5.90;99.90;;;;;;4974606;28;20212;-58
2023/10/18 03:56:55;;;;;;;5.53;3.40;;;5.90;99.90;;;;;;4972713;28;20287;-57
2023/10/18 03:59:25;;;;;;;3.25;2.85;;;5.90;99.90;;;;;;4974924;28;20215;-57
2023/10/18 04:02:06;;;;;;;5.80;3.47;;;6.00;99.90;;;;;;4977555;28;20263;-57
2023/10/18 04:04:36;;;;;;;3.03;2.83;;;5.90;99.90;;;;;;4974425;28;20703;-57
2023/10/18 04:07:12;;;;;;;3.38;3.08;;;6.00;99.90;;;;;;4980594;28;20239;-56
2023/10/18 04:09:45;;;;;;;3.95;3.03;;;5.90;99.90;;;;;;4984151;28;20753;-56
2023/10/18 04:12:19;;;;;;;4.13;2.80;;;5.90;99.90;;;;;;4991050;28;20294;-57
2023/10/18 04:14:52;;;;;;;4.90;3.08;;;5.80;99.90;;;;;;4984633;28;20243;-57
2023/10/18 04:17:36;;;;;;;5.28;3.50;;;5.80;99.90;;;;;;4991116;28;20230;-57
2023/10/18 04:20:12;;;;;;;3.90;3.50;;;5.80;99.90;;;;;;4986628;28;20262;-56
2023/10/18 04:22:43;;;;;;;5.45;3.45;;;5.80;99.90;;;;;;4988462;28;20310;-58
2023/10/18 04:25:17;;;;;;;5.72;3.67;;;5.80;99.90;;;;;;4990579;28;20240;-57
2023/10/18 04:27:45;;;;;;;4.32;3.70;;;5.70;99.90;;;;;;4996521;28;20254;-58
2023/10/18 04:30:16;;;;;;;4.10;3.42;;;5.80;99.90;;;;;;4987822;28;20222;-57
2023/10/18 04:32:45;;;;;;;5.70;3.30;;;5.80;99.90;;;;;;4988302;28;20227;-57
2023/10/18 04:35:25;;;;;;;4.07;3.47;;;5.80;99.90;;;;;;4987130;28;20211;-56
2023/10/18 04:37:54;;;;;;;4.82;3.75;;;5.80;99.90;;;;;;5001221;28;20235;-57
2023/10/18 04:40:26;;;;;;;5.78;3.83;;;5.80;99.90;;;;;;5000835;28;20247;-56
2023/10/18 04:42:56;;;;;;;4.40;3.63;;;5.70;99.90;;;;;;4990154;28;20315;-58
2023/10/18 04:45:26;;;;;;;3.78;3.47;;;5.70;99.90;;;;;;5004967;28;20270;-56
2023/10/18 04:48:01;;;;;;;5.65;3.83;;;5.80;99.90;;;;;;5001659;28;20232;-57
2023/10/18 04:50:32;;;;;;;4.63;3.35;;;5.80;99.90;;;;;;4992208;28;21514;-57
2023/10/18 04:53:09;;;;;;;3.08;2.88;;;5.80;99.90;;;;;;5002772;28;20209;-58
2023/10/18 04:55:41;;;;;;;3.67;3.33;;;5.90;99.90;;;;;;4990406;28;20207;-56
2023/10/18 04:58:11;;;;;;;8.00;3.75;;;5.90;99.90;;;;;;4990879;28;20275;-56
2023/10/18 05:00:56;;;;;;;4.28;3.30;;;5.90;99.90;;;;;;4999957;28;20206;-57
2023/10/18 05:03:30;;;;;;;6.25;3.22;;;5.90;99.90;;;;;;5001459;28;20238;-56
2023/10/18 05:05:59;;;;;;;4.10;3.78;;;5.90;99.90;;;;;;4996008;28;20265;-56
2023/10/18 05:08:30;;;;;;;6.63;3.60;;;5.90;99.90;;;;;;4994753;28;20219;-56
2023/10/18 05:11:22;;;;;;;3.78;2.97;;;5.90;99.90;;;;;;5005815;28;20695;-57
2023/10/18 05:13:48;;;;;;;9.48;3.92;;;5.90;99.90;;;;;;4984712;28;20211;-57
2023/10/18 05:16:16;;;;;;;7.75;4.13;;;5.80;99.90;;;;;;4998440;28;20232;-57
2023/10/18 05:18:45;;;;;;;4.65;4.18;;;5.70;99.90;;;;;;4994565;28;20588;-57
2023/10/18 05:21:20;;;;;;;6.45;4.18;;;5.70;99.90;;;;;;4995838;28;20255;-58
2023/10/18 05:23:50;;;;;;;5.28;3.97;;;5.70;99.90;;;;;;4989859;28;20234;-58
2023/10/18 05:26:18;;;;;;;4.63;3.97;;;5.60;99.90;;;;;;4993058;28;20228;-57
2023/10/18 05:28:49;;;;;;;6.20;4.22;;;5.50;99.90;;;;;;4995095;28;20563;-54
2023/10/18 05:31:43;;;;;;;7.43;4.20;;;5.50;99.90;;;;;;5010899;28;20207;-54
2023/10/18 05:34:22;;;;;;;4.00;3.70;;;5.50;99.90;;;;;;5013792;28;20564;-62
2023/10/18 05:37:12;;;;;;;4.13;3.83;;;5.50;99.90;;;;;;5013945;28;20301;-57
2023/10/18 05:39:54;;;;;;;6.97;4.40;;;5.50;99.90;;;;;;5014130;28;20338;-58
2023/10/18 05:42:35;;;;;;;6.88;4.55;;;5.60;99.90;;;;;;5013379;28;20649;-58
2023/10/18 05:45:04;;;;;;;6.60;4.38;;;5.60;99.90;;;;;;5013604;28;20211;-57
2023/10/18 05:47:34;;;;;;;9.52;4.30;;;5.60;99.90;;;;;;5013585;28;20716;-57
2023/10/18 05:50:04;;;;;;;5.97;4.10;;;5.60;99.90;;;;;;5013781;28;20207;-59
2023/10/18 05:52:37;;;;;;;5.95;4.05;;;5.60;99.90;;;;;;5013754;28;20289;-57
2023/10/18 05:55:09;;;;;;;5.18;4.07;;;5.70;99.90;;;;;;5012823;28;20238;-58
2023/10/18 05:57:40;;;;;;;4.18;3.78;;;5.70;99.90;;;;;;5005988;28;20722;-58
2023/10/18 06:00:17;;;;;;;5.72;4.63;;;5.80;99.90;;;;;;5005223;28;20231;-58
2023/10/18 06:02:45;;;;;;;6.88;4.57;;;5.80;99.90;;;;;;5013514;28;20295;-59
2023/10/18 06:05:13;;;;;;;5.90;4.50;;;5.80;99.90;;;;;;5005262;28;20209;-58
2023/10/18 06:07:43;;;;;;;4.63;4.28;;;5.80;99.90;;;;;;5014416;28;20254;-57
2023/10/18 06:10:17;;;;;;;5.82;4.80;;;5.80;99.90;;;;;;5013518;28;20332;-57
2023/10/18 06:12:48;;;;;;;5.20;4.70;;;5.80;99.90;;;;;;5013088;28;20210;-57
2023/10/18 06:15:30;;;;;;;6.72;5.13;;;5.70;99.90;;;;;;5012306;28;20289;-58
2023/10/18 06:17:58;;;;;;;8.57;5.32;;;5.80;99.90;;;;;;5012997;28;20286;-57
2023/10/18 06:20:27;;;;;;;7.38;4.82;;;5.70;99.90;;;;;;5013186;28;20298;-58
2023/10/18 06:23:09;;;;;;;7.53;5.30;;;5.80;99.90;;;;;;5013129;28;20211;-58
2023/10/18 06:25:44;;;;;;;8.57;4.82;;;5.80;99.90;;;;;;5013118;28;20269;-58
2023/10/18 06:28:19;;;;;;;6.88;5.45;;;5.80;99.90;;;;;;5013303;28;20230;-57
2023/10/18 06:30:51;;;;;;;9.60;5.85;;;5.80;99.90;;;;;;5013142;28;20210;-58
2023/10/18 06:33:20;;;;;;;7.15;4.78;;;5.80;99.90;;;;;;5012752;28;20265;-56
2023/10/18 06:35:52;;;;;;;10.85;5.53;;;5.80;99.90;;;;;;5012944;28;20277;-58
2023/10/18 06:38:23;;;;;;;6.82;5.45;;;5.90;99.90;;;;;;5013108;28;20204;-57
2023/10/18 06:40:51;;;;;;;6.47;4.95;;;5.80;99.90;;;;;;5012932;28;20310;-58
2023/10/18 06:43:32;;;;;;;8.43;5.32;;;5.80;99.90;;;;;;5012005;28;20278;-58
2023/10/18 06:46:00;;;;;;;7.03;5.25;;;5.90;99.90;;;;;;5012762;28;20219;-58
2023/10/18 06:48:30;;;;;;;6.78;5.22;;;6.00;99.90;;;;;;5012801;28;20207;-58
2023/10/18 06:50:59;;;;;;;6.68;5.63;;;6.00;99.90;;;;;;5012974;28;20213;-57
2023/10/18 06:53:29;;;;;;;6.32;5.30;;;6.00;99.90;;;;;;5012653;28;20294;-58
2023/10/18 06:55:58;;;;;;;7.03;5.38;;;6.10;99.90;;;;;;5012791;28;20215;-57
2023/10/18 06:58:42;;;;;;;15.55;6.65;;;6.10;99.90;;;;;;5012355;28;20298;-57
2023/10/18 07:01:14;;;;;;;9.02;6.32;;;6.10;99.90;;;;;;5012659;28;20207;-58
2023/10/18 07:03:43;;;;;;;11.50;5.90;;;6.10;99.90;;;;;;5012141;28;20222;-59
2023/10/18 07:06:18;;;;;;;11.60;6.00;;;6.20;99.90;;;;;;5003753;28;20250;-58
2023/10/18 07:08:49;;;;;;;10.25;5.95;;;6.30;99.90;;;;;;4997257;28;20615;-58
2023/10/18 07:11:18;;;;;;;10.90;6.43;;;6.30;99.90;;;;;;5012040;28;20221;-57
2023/10/18 07:14:04;;;;;;;8.45;5.47;;;6.30;99.90;;;;;;5012005;28;20289;-59
2023/10/18 07:16:38;;;;;;;13.23;6.57;;;6.40;99.90;;;;;;5012070;28;20250;-58
2023/10/18 07:19:21;;;;;;;9.63;6.47;;;6.50;99.90;;;;;;5012249;28;20687;-58
2023/10/18 07:21:49;;;;;;;8.15;6.38;;;6.60;99.90;;;;;;5011450;28;20213;-58
2023/10/18 07:24:20;;;;;;;11.70;7.00;;;6.70;99.90;;;;;;5005538;28;20257;-58
2023/10/18 07:26:48;;;;;;;11.60;6.88;;;6.70;99.90;;;;;;5007036;28;20787;-56
2023/10/18 07:29:17;;;;;;;10.85;6.85;;;6.80;99.90;;;;;;5011804;28;20273;-56
2023/10/18 07:31:46;;;;;;;8.30;6.95;;;6.90;99.90;;;;;;5003748;28;20281;-57
2023/10/18 07:34:18;;;;;;;12.55;7.40;;;6.90;99.90;;;;;;5006418;28;20207;-58
2023/10/18 07:36:46;;;;;;;10.48;7.72;;;7.00;99.90;;;;;;5007803;28;20242;-57
2023/10/18 07:39:16;;;;;;;9.85;7.35;;;7.00;99.90;;;;;;5006782;28;20207;-57
2023/10/18 07:41:46;;;;;;;9.77;7.50;;;7.00;99.90;;;;;;4996179;28;20235;-57
2023/10/18 07:44:14;;;;;;;9.55;7.18;;;7.10;99.90;;;;;;5011634;28;20230;-58
2023/10/18 07:46:42;;;;;;;9.93;7.55;;;7.30;99.90;;;;;;5012503;28;20227;-56
2023/10/18 07:49:13;;;;;;;12.38;7.75;;;7.30;99.90;;;;;;5003532;28;20215;-58
2023/10/18 07:51:48;;;;;;;9.68;7.45;;;7.50;99.90;;;;;;5012346;28;20294;-57
2023/10/18 07:54:16;;;;;;;8.55;7.05;;;7.60;99.90;;;;;;5011977;28;20297;-57
2023/10/18 07:56:49;;;;;;;11.75;7.45;;;7.80;99.90;;;;;;5011966;28;20227;-57
2023/10/18 07:59:29;;;;;;;8.15;6.93;;;8.00;99.90;;;;;;5012088;28;20234;-56
2023/10/18 08:02:12;;;;;;;8.73;7.38;;;8.10;99.90;;;;;;5001304;28;20211;-57
2023/10/18 08:04:42;;;;;;;9.90;7.07;;;8.20;99.90;;;;;;4999421;28;20269;-59
2023/10/18 08:07:11;;;;;;;9.73;7.10;;;8.30;99.90;;;;;;4997913;28;20229;-56
2023/10/18 08:09:41;;;;;;;16.17;6.90;;;8.40;99.90;;;;;;4995111;28;20207;-57
2023/10/18 08:12:20;;;;;;;10.68;7.47;;;8.50;99.90;;;;;;5005163;28;20208;-58
2023/10/18 08:14:48;;;;;;;11.27;7.35;;;8.60;99.90;;;;;;4996556;28;20309;-59
2023/10/18 08:17:30;;;;;;;8.77;7.18;;;8.60;99.90;;;;;;5012550;28;20254;-58
2023/10/18 08:20:17;;;;;;;13.57;7.88;;;8.70;99.90;;;;;;5011886;28;20210;-58
2023/10/18 08:22:45;;;;;;;10.13;6.78;;;8.70;99.90;;;;;;5012432;28;20207;-57
2023/10/18 08:25:23;;;;;;;11.10;6.68;;;8.60;99.90;;;;;;5013459;28;20234;-57
2023/10/18 08:27:53;;;;;;;13.43;7.70;;;8.60;99.90;;;;;;5012880;28;20705;-57
2023/10/18 08:30:25;;;;;;;11.43;6.85;;;8.60;99.90;;;;;;5011617;28;20286;-58
2023/10/18 08:32:58;;;;;;;11.57;7.10;;;8.60;99.90;;;;;;4990842;28;20243;-56
2023/10/18 08:35:26;;;;;;;9.90;6.90;;;8.60;99.90;;;;;;5008278;28;20231;-58
2023/10/18 08:37:54;;;;;;;11.77;7.13;;;8.60;99.90;;;;;;5003026;28;20294;-56
2023/10/18 08:40:36;;;;;;;14.40;7.28;;;8.50;99.90;;;;;;5010413;28;20298;-57
2023/10/18 08:43:12;;;;;;;12.45;7.40;;;8.60;99.90;;;;;;5010999;28;20249;-57
2023/10/18 08:45:46;;;;;;;10.15;7.93;;;8.70;99.90;;;;;;5010931;28;20234;-57
2023/10/18 08:48:26;;;;;;;13.27;7.25;;;8.90;99.90;;;;;;5012773;28;20222;-58
2023/10/18 08:50:56;;;;;;;7.68;6.70;;;9.00;99.90;;;;;;5012071;28;20234;-59
2023/10/18 08:53:25;;;;;;;9.15;6.85;;;9.20;99.90;;;;;;5014671;28;20211;-56
2023/10/18 08:55:54;;;;;;;10.57;7.20;;;9.40;99.90;;;;;;5014677;28;20235;-59
2023/10/18 08:58:23;;;;;;;9.98;7.20;;;9.50;99.90;;;;;;5014950;28;20239;-57
2023/10/18 09:01:06;;;;;;;10.90;6.88;;;9.60;99.90;;;;;;4999319;28;20295;-59
2023/10/18 09:03:35;;;;;;;11.32;6.60;;;9.70;99.90;;;;;;5014575;28;20207;-57
2023/10/18 09:06:05;;;;;;;7.72;6.75;;;9.80;99.90;;;;;;5014497;28;20223;-57
2023/10/18 09:08:38;;;;;;;10.43;6.63;;;9.90;99.90;;;;;;5014479;28;20302;-58
2023/10/18 09:11:09;;;;;;;11.60;7.18;;;9.90;99.90;;;;;;5014454;28;20309;-58
2023/10/18 09:13:42;;;;;;;11.65;6.30;;;10.10;99.90;;;;;;5013961;28;20211;-57
2023/10/18 09:16:11;;;;;;;7.90;6.07;;;10.20;99.90;;;;;;5014428;28;20294;-58
2023/10/18 09:18:40;;;;;;;8.48;6.85;;;10.30;99.90;;;;;;5014368;28;20570;-59
2023/10/18 09:21:17;;;;;;;7.07;5.93;;;10.40;99.90;;;;;;5013535;28;20257;-58
2023/10/18 09:23:47;;;;;;;6.80;5.82;;;10.40;99.90;;;;;;5014300;28;20207;-59
2023/10/18 09:26:19;;;;;;;8.43;6.43;;;10.50;99.90;;;;;;5013948;28;20239;-58
2023/10/18 09:28:48;;;;;;;9.25;6.28;;;10.80;99.90;;;;;;5014179;28;20262;-58
2023/10/18 09:31:18;;;;;;;6.57;5.88;;;11.00;99.90;;;;;;4996354;28;20263;-56
2023/10/18 09:33:51;;;;;;;12.18;6.90;;;11.30;99.90;;;;;;4997058;28;20215;-58
2023/10/18 09:36:20;;;;;;;9.40;6.32;;;11.40;99.90;;;;;;5005857;28;20668;-56
2023/10/18 09:38:49;;;;;;;9.23;5.93;;;11.40;99.90;;;;;;5013926;28;20211;-58
2023/10/18 09:41:17;;;;;;;10.02;6.75;;;11.50;99.90;;;;;;5014016;28;20242;-58
2023/10/18 09:43:46;;;;;;;8.25;6.22;;;11.80;99.90;;;;;;5013906;28;20215;-57
2023/10/18 09:46:16;;;;;;;7.50;5.80;;;12.20;99.90;;;;;;5013729;28;20313;-59
2023/10/18 09:48:45;;;;;;;7.20;5.95;;;12.20;99.90;;;;;;5013989;28;20698;-59
2023/10/18 09:51:15;;;;;;;11.52;5.97;;;12.10;99.90;;;;;;5013648;28;20211;-57
2023/10/18 09:53:44;;;;;;;9.20;6.03;;;11.90;99.90;;;;;;5013798;28;20204;-57
2023/10/18 09:56:13;;;;;;;6.25;5.65;;;11.80;99.90;;;;;;5013730;28;20223;-57
2023/10/18 09:58:43;;;;;;;7.40;5.00;;;11.70;99.90;;;;;;5013906;28;20239;-59
2023/10/18 10:01:14;;;;;;;10.65;6.00;;;11.70;99.90;;;;;;5013110;28;20298;-59
2023/10/18 10:03:51;;;;;;;8.52;5.72;;;11.70;99.90;;;;;;5013414;28;20231;-59
2023/10/18 10:06:21;;;;;;;9.68;5.65;;;11.70;99.90;;;;;;5013513;28;20223;-56
2023/10/18 10:08:51;;;;;;;8.45;5.55;;;11.70;99.90;;;;;;5013661;28;20625;-59
2023/10/18 10:11:20;;;;;;;7.43;5.80;;;11.70;99.90;;;;;;5013481;28;20218;-59
2023/10/18 10:13:49;;;;;;;5.75;4.97;;;12.10;99.90;;;;;;5013312;28;20235;-58
2023/10/18 10:16:18;;;;;;;7.05;5.15;;;12.60;99.90;;;;;;5013118;28;20273;-58
2023/10/18 10:18:49;;;;;;;8.00;4.68;;;13.00;99.90;;;;;;5013354;28;20732;-57
2023/10/18 10:21:20;;;;;;;5.18;4.63;;;13.60;99.90;;;;;;5013252;28;20766;-59
2023/10/18 10:23:55;;;;;;;8.27;4.40;;;14.20;99.90;;;;;;5013259;28;20199;-59
2023/10/18 10:26:27;;;;;;;5.72;4.45;;;14.70;99.90;;;;;;5013046;28;20227;-57
2023/10/18 10:31:55;;;;;;;7.40;4.00;;;15.50;99.90;;;;;;5003029;28;20298;-59
2023/10/18 10:34:28;;;;;;;6.93;4.13;;;15.80;99.90;;;;;;5012914;28;20210;-57
2023/10/18 10:37:09;;;;;;;4.40;3.88;;;15.90;99.90;;;;;;5013011;28;20231;-59
2023/10/18 10:39:44;;;;;;;4.07;3.63;;;16.10;99.90;;;;;;5012738;28;20632;-59
2023/10/18 10:42:28;;;;;;;6.10;3.60;;;16.20;99.90;;;;;;5013181;28;20681;-58
2023/10/18 10:44:57;;;;;;;12.30;4.43;;;16.40;99.90;;;;;;5012755;28;20294;-59
2023/10/18 10:47:29;;;;;;;3.58;3.30;;;16.50;99.90;;;;;;5012825;28;20223;-58
2023/10/18 10:49:59;;;;;;;5.82;2.95;;;16.60;99.90;;;;;;5012960;28;20207;-58
2023/10/18 10:52:30;;;;;;;3.10;2.90;;;16.60;99.90;;;;;;5013135;28;20242;-59
2023/10/18 10:55:06;;;;;;;5.03;3.47;;;16.80;99.90;;;;;;5012750;28;20265;-58
2023/10/18 10:57:43;;;;;;;6.63;3.63;;;16.80;99.90;;;;;;5012729;28;20219;-58
2023/10/18 11:00:36;;;;;;;4.18;3.72;;;16.90;99.90;;;;;;5012359;28;20261;-58
2023/10/18 11:03:30;;;;;;;4.38;3.15;;;16.80;99.90;;;;;;5012570;28;20199;-59
2023/10/18 11:05:59;;;;;;;3.92;3.38;;;16.80;99.90;;;;;;5012254;28;20327;-59
2023/10/18 11:08:28;;;;;;;3.15;2.80;;;17.00;99.90;;;;;;5012348;28;20239;-58
2023/10/18 11:10:57;;;;;;;3.25;3.05;;;17.00;99.90;;;;;;5011975;28;20302;-59
2023/10/18 11:13:26;;;;;;;3.17;2.92;;;16.80;99.90;;;;;;5012021;28;20265;-59
2023/10/18 11:15:54;;;;;;;3.13;2.83;;;16.80;99.90;;;;;;5012390;28;20199;-58
2023/10/18 11:18:22;;;;;;;8.05;3.20;;;17.00;99.90;;;;;;5012543;28;20262;-58
2023/10/18 11:21:05;;;;;;;4.18;3.28;;;17.30;99.90;;;;;;5011903;28;20249;-60
2023/10/18 11:23:37;;;;;;;5.63;3.28;;;17.20;99.90;;;;;;5012166;28;20203;-59
2023/10/18 11:26:09;;;;;;;3.92;3.55;;;17.10;99.90;;;;;;5002581;28;20337;-59
2023/10/18 11:28:38;;;;;;;4.00;3.25;;;17.00;99.90;;;;;;5001213;28;20639;-59
2023/10/18 11:31:07;;;;;;;3.55;2.97;;;16.90;99.90;;;;;;5002810;28;20298;-59
2023/10/18 11:33:46;;;;;;;3.55;3.25;;;17.00;99.90;;;;;;5000929;28;20204;-59
2023/10/18 11:36:18;;;;;;;4.45;3.50;;;17.10;99.90;;;;;;5003759;28;20226;-58
2023/10/18 11:41:34;;;;;;;6.05;3.38;;;17.00;99.90;;;;;;5015243;28;20218;-61
2023/10/18 11:44:06;;;;;;;3.88;3.38;;;17.10;99.90;;;;;;5019884;28;20249;-61
2023/10/18 11:46:47;;;;;;;4.63;3.30;;;17.20;99.90;;;;;;5027722;28;20384;-60
2023/10/18 11:49:18;;;;;;;4.38;3.10;;;17.40;99.90;;;;;;5031193;28;20229;-60
2023/10/18 11:51:48;;;;;;;3.22;2.92;;;17.50;99.90;;;;;;5031446;28;20215;-60
2023/10/18 11:54:31;;;;;;;4.63;2.88;;;17.60;99.90;;;;;;5030074;28;20293;-60
2023/10/18 11:57:00;;;;;;;6.80;3.33;;;17.50;99.90;;;;;;5031500;28;20198;-60
2023/10/18 11:59:29;;;;;;;3.67;3.08;;;17.40;99.90;;;;;;5030718;28;20222;-60
2023/10/18 12:01:58;;;;;;;3.58;3.15;;;17.30;99.90;;;;;;5031366;28;20245;-60
2023/10/18 12:04:29;;;;;;;6.53;2.88;;;17.00;99.90;;;;;;5030969;28;20202;-60
2023/10/18 12:06:58;;;;;;;2.92;2.63;;;16.90;99.90;;;;;;5012377;28;20231;-60
2023/10/18 12:09:31;;;;;;;3.47;3.00;;;16.90;99.90;;;;;;5010911;28;20230;-60
2023/10/18 12:12:05;;;;;;;2.95;2.65;;;17.10;99.90;;;;;;5003506;28;20293;-60
2023/10/18 12:14:34;;;;;;;4.75;2.50;;;17.20;99.90;;;;;;5011116;28;20199;-60
2023/10/18 12:17:02;;;;;;;3.83;3.22;;;17.20;99.90;;;;;;5014982;28;20238;-60
2023/10/18 12:19:31;;;;;;;3.20;2.90;;;16.90;99.90;;;;;;5029090;28;20226;-60
2023/10/18 12:22:00;;;;;;;3.33;2.90;;;16.70;99.90;;;;;;5003383;28;20281;-60
2023/10/18 12:24:28;;;;;;;5.50;2.85;;;16.40;99.90;;;;;;5017557;28;20213;-60
2023/10/18 12:26:57;;;;;;;2.83;2.50;;;16.00;99.90;;;;;;5028024;28;20218;-60
2023/10/18 12:29:29;;;;;;;3.88;2.67;;;15.80;99.90;;;;;;5029095;28;20219;-60
2023/10/18 12:32:18;;;;;;;4.80;2.72;;;15.70;99.90;;;;;;5020903;28;20835;-60
2023/10/18 12:34:48;;;;;;;2.88;2.58;;;15.50;99.90;;;;;;5020424;28;20210;-60
2023/10/18 12:37:17;;;;;;;2.88;2.53;;;15.40;99.90;;;;;;5015494;28;20199;-59
2023/10/18 12:39:47;;;;;;;3.15;2.40;;;15.40;99.90;;;;;;5009711;28;20245;-60
2023/10/18 12:42:19;;;;;;;3.10;2.42;;;15.30;99.90;;;;;;5016727;28;20198;-60
2023/10/18 12:44:55;;;;;;;8.50;2.22;;;15.20;99.90;;;;;;5030716;28;20206;-60
2023/10/18 12:47:23;;;;;;;2.42;2.22;;;15.00;99.90;;;;;;5031035;28;20232;-60
2023/10/18 12:49:51;;;;;;;7.50;2.80;;;14.90;99.90;;;;;;5030684;28;20678;-59
2023/10/18 12:55:09;;;;;;;5.20;2.65;;;14.80;99.90;;;;;;5030623;28;20691;-60
2023/10/18 12:57:36;;;;;;;2.80;2.60;;;14.80;99.90;;;;;;5030902;28;20202;-60
2023/10/18 13:00:16;;;;;;;2.45;2.25;;;14.70;99.90;;;;;;5022510;28;20264;-59
2023/10/18 13:05:41;;;;;;;4.43;3.17;;;14.70;99.90;;;;;;5029659;28;20206;-60
2023/10/18 13:08:17;;;;;;;3.08;2.60;;;14.70;99.90;;;;;;5030874;28;20230;-60
2023/10/18 13:10:57;;;;;;;4.30;2.83;;;14.60;99.90;;;;;;5030523;28;20230;-60
2023/10/18 13:13:24;;;;;;;3.20;2.53;;;14.60;99.90;;;;;;5023812;28;20199;-60
2023/10/18 13:15:53;;;;;;;5.28;2.75;;;14.50;99.90;;;;;;5028870;28;20253;-60
2023/10/18 13:18:21;;;;;;;6.13;3.13;;;14.40;99.90;;;;;;5021182;28;20762;-59
2023/10/18 13:20:49;;;;;;;5.40;2.60;;;14.40;99.90;;;;;;5009734;28;20342;-60
2023/10/18 13:23:18;;;;;;;3.92;2.47;;;14.40;99.90;;;;;;5010479;28;20719;-58
2023/10/18 13:25:53;;;;;;;3.33;2.72;;;14.50;99.90;;;;;;5019966;28;20203;-59
2023/10/18 13:28:33;;;;;;;3.97;2.13;;;14.60;99.90;;;;;;5024923;28;20225;-60
2023/10/18 13:31:07;;;;;;;3.55;2.17;;;14.60;99.90;;;;;;5021844;28;20217;-60